Terminal Aerodrome Forecast
Issued by NWS Burlington, VT

Home | Current Version | Previous Version | Text Only | Print | Product List | Glossary On
Versions: 1 2 3 4 5 6 7 8 9 10 11 12 13
000
FTUS41 KBTV 251728
TAFBTV
TAF
KBTV 251728Z 2518/2618 15010G23KT P6SM -RA OVC060
     FM252100 15009G22KT P6SM VCSH OVC040
     FM260100 15007KT 6SM -SHRA OVC040
     FM260700 13004KT P6SM -SHRA OVC030
     FM261200 11004KT P6SM VCSH OVC020
     FM261700 14005KT P6SM OVC030=

USA.gov is the U.S. government's official web portal to all federal, state and local government web resources and services.